createdAt,value
2023-02-24T00:01:28.251Z,100328.25
2023-02-24T00:03:57.941Z,100320.91
2023-02-24T00:06:26.653Z,100323.78
2023-02-24T00:08:56.929Z,100312.50
2023-02-24T00:11:24.695Z,100312.50
2023-02-24T00:13:52.402Z,100307.94
2023-02-24T00:16:20.801Z,100308.91
2023-02-24T00:18:49.449Z,100303.69
2023-02-24T00:21:18.186Z,100304.75
2023-02-24T00:23:48.089Z,100292.06
2023-02-24T00:26:18.232Z,100300.56
2023-02-24T00:28:46.043Z,100295.94
2023-02-24T00:31:19.652Z,100293.13
2023-02-24T00:33:48.552Z,100287.69
2023-02-24T00:36:23.793Z,100279.63
2023-02-24T00:38:55.619Z,100281.22
2023-02-24T00:41:29.255Z,100282.91
2023-02-24T00:43:58.909Z,100274.59
2023-02-24T00:46:31.861Z,100269.50
2023-02-24T00:49:04.285Z,100270.22
2023-02-24T00:51:35.664Z,100274.09
2023-02-24T00:54:04.330Z,100270.03
2023-02-24T00:56:33.928Z,100261.56
2023-02-24T00:59:02.477Z,100257.25
2023-02-24T01:01:32.260Z,100260.53
2023-02-24T01:04:05.782Z,100256.19
2023-02-24T01:06:35.071Z,100251.59
2023-02-24T01:09:07.566Z,100255.66
2023-02-24T01:11:55.219Z,100246.09
2023-02-24T01:14:29.113Z,100249.44
2023-02-24T01:16:57.745Z,100253.78
2023-02-24T01:19:31.334Z,100242.53
2023-02-24T01:22:02.441Z,100247.78
2023-02-24T01:24:33.138Z,100239.25
2023-02-24T01:27:02.564Z,100242.88
2023-02-24T01:29:30.253Z,100231.03
2023-02-24T01:31:58.705Z,100234.09
2023-02-24T01:34:28.238Z,100237.97
2023-02-24T01:36:58.857Z,100233.97
2023-02-24T01:39:26.583Z,100222.38
2023-02-24T01:41:54.334Z,100220.31
2023-02-24T01:45:00.187Z,100221.00
2023-02-24T01:47:31.235Z,100216.72
2023-02-24T01:49:59.266Z,100213.28
2023-02-24T01:52:32.258Z,100198.66
2023-02-24T01:55:08.382Z,100194.53
2023-02-24T01:57:39.527Z,100189.28
2023-02-24T02:00:12.244Z,100190.09
2023-02-24T02:02:50.675Z,100183.06
2023-02-24T02:05:18.691Z,100185.56
2023-02-24T02:07:46.858Z,100184.56
2023-02-24T02:10:14.753Z,100179.06
2023-02-24T02:12:44.883Z,100177.97
2023-02-24T02:15:14.596Z,100163.06
2023-02-24T02:17:57.934Z,100170.94
2023-02-24T02:20:43.878Z,100162.78
2023-02-24T02:23:42.447Z,100163.63
2023-02-24T02:26:41.377Z,100158.25
2023-02-24T02:29:35.339Z,100153.25
2023-02-24T02:32:32.844Z,100153.25
2023-02-24T02:35:10.980Z,100146.34
2023-02-24T02:37:45.831Z,100140.72
2023-02-24T02:40:21.041Z,100128.56
2023-02-24T02:42:55.410Z,100126.91
2023-02-24T02:45:27.759Z,100138.50
2023-02-24T02:48:00.780Z,100128.03
2023-02-24T02:50:36.651Z,100117.69
2023-02-24T02:53:09.654Z,100122.91
2023-02-24T02:55:41.976Z,100121.25
2023-02-24T02:58:14.819Z,100118.78
2023-02-24T03:00:58.023Z,100125.13
2023-02-24T03:03:27.998Z,100117.41
2023-02-24T03:06:03.940Z,100105.13
2023-02-24T03:08:37.176Z,100101.81
2023-02-24T03:11:08.838Z,100107.19
2023-02-24T03:13:41.667Z,100099.63
2023-02-24T03:16:12.131Z,100099.75
2023-02-24T03:18:45.679Z,100095.47
2023-02-24T03:21:20.870Z,100084.84
2023-02-24T03:23:51.688Z,100083.47
2023-02-24T03:26:28.168Z,100079.34
2023-02-24T03:29:03.363Z,100084.16
2023-02-24T03:31:40.896Z,100085.38
2023-02-24T03:34:13.581Z,100078.22
2023-02-24T03:36:44.155Z,100076.25
2023-02-24T03:39:13.176Z,100073.38
2023-02-24T03:41:57.178Z,100072.25
2023-02-24T03:44:26.781Z,100078.16
2023-02-24T03:46:55.717Z,100074.97
2023-02-24T03:49:25.314Z,100077.94
2023-02-24T03:52:11.016Z,100068.69
2023-02-24T03:55:07.972Z,100071.25
2023-02-24T03:57:56.029Z,100060.63
2023-02-24T04:00:37.049Z,100057.00
2023-02-24T04:03:23.584Z,100067.41
2023-02-24T04:06:01.233Z,100066.53
2023-02-24T04:08:37.662Z,100062.78
2023-02-24T04:11:13.178Z,100062.47
2023-02-24T04:13:46.711Z,100068.34
2023-02-24T04:16:28.066Z,100057.44
2023-02-24T04:18:59.717Z,100067.44
2023-02-24T04:21:31.238Z,100061.66
2023-02-24T04:24:02.598Z,100068.06
2023-02-24T04:26:31.153Z,100069.28
2023-02-24T04:28:59.338Z,100063.75
2023-02-24T04:31:29.422Z,100050.38
2023-02-24T04:33:57.215Z,100051.66
2023-02-24T04:36:34.401Z,100053.25
2023-02-24T04:39:05.063Z,100043.56
2023-02-24T04:41:33.129Z,100040.03
2023-02-24T04:44:01.684Z,100043.38
2023-02-24T04:46:32.256Z,100036.31
2023-02-24T04:49:02.108Z,100029.22
2023-02-24T04:51:32.372Z,100026.41
2023-02-24T04:54:00.689Z,100016.69
2023-02-24T04:56:29.918Z,100025.94
2023-02-24T04:58:57.677Z,100019.69
2023-02-24T05:01:25.475Z,100014.13
2023-02-24T05:03:53.262Z,100009.41
2023-02-24T05:06:21.009Z,100005.50
2023-02-24T05:08:48.773Z,99998.84
2023-02-24T05:11:19.100Z,99998.28
2023-02-24T05:13:48.625Z,99997.66
2023-02-24T05:16:20.291Z,99997.09
2023-02-24T05:18:48.285Z,99992.81
2023-02-24T05:21:35.378Z,99984.19
2023-02-24T05:24:06.626Z,99976.59
2023-02-24T05:26:36.862Z,99969.69
2023-02-24T05:29:07.152Z,99966.97
2023-02-24T05:31:36.804Z,99965.84
2023-02-24T05:34:06.309Z,99957.28
2023-02-24T05:36:38.944Z,99956.19
2023-02-24T05:39:08.051Z,99955.16
2023-02-24T05:41:38.854Z,99955.25
2023-02-24T05:44:11.441Z,99947.34
2023-02-24T05:46:41.590Z,99945.63
2023-02-24T05:49:14.569Z,99942.41
2023-02-24T05:51:54.298Z,99942.47
2023-02-24T05:54:24.423Z,99933.97
2023-02-24T05:56:52.521Z,99934.00
2023-02-24T05:59:22.035Z,99930.06
2023-02-24T06:01:53.222Z,99933.94
2023-02-24T06:04:39.341Z,99923.09
2023-02-24T06:07:13.581Z,99920.91
2023-02-24T06:09:42.922Z,99912.69
2023-02-24T06:12:11.487Z,99906.38
2023-02-24T06:14:40.669Z,99906.09
2023-02-24T06:17:08.470Z,99904.88
2023-02-24T06:19:36.192Z,99898.66
2023-02-24T06:22:06.912Z,99888.91
2023-02-24T06:24:34.678Z,99889.75
2023-02-24T06:27:09.670Z,99882.31
2023-02-24T06:29:38.431Z,99868.41
2023-02-24T06:32:08.804Z,99870.47
2023-02-24T06:34:36.979Z,99863.44
2023-02-24T06:37:05.885Z,99865.34
2023-02-24T06:39:36.573Z,99863.44
2023-02-24T06:42:08.631Z,99860.97
2023-02-24T06:44:38.343Z,99857.38
2023-02-24T06:47:09.074Z,99858.91
2023-02-24T06:49:37.619Z,99854.53
2023-02-24T06:52:06.216Z,99850.00
2023-02-24T06:54:35.860Z,99852.59
2023-02-24T06:57:04.752Z,99854.56
2023-02-24T06:59:32.581Z,99842.88
2023-02-24T07:02:03.314Z,99840.09
2023-02-24T07:04:43.462Z,99837.94
2023-02-24T07:07:14.068Z,99833.09
2023-02-24T07:09:44.031Z,99831.88
2023-02-24T07:12:12.543Z,99828.16
2023-02-24T07:14:40.973Z,99828.00
2023-02-24T07:17:10.225Z,99820.88
2023-02-24T07:19:39.512Z,99814.50
2023-02-24T07:22:07.471Z,99810.81
2023-02-24T07:24:37.562Z,99806.41
2023-02-24T07:27:07.421Z,99801.75
2023-02-24T07:29:37.653Z,99802.53
2023-02-24T07:32:08.456Z,99797.16
2023-02-24T07:34:40.234Z,99792.63
2023-02-24T07:37:10.874Z,99788.94
2023-02-24T07:39:40.157Z,99780.91
2023-02-24T07:42:09.205Z,99773.63
2023-02-24T07:44:46.767Z,99766.88
2023-02-24T07:47:15.816Z,99761.06
2023-02-24T07:49:45.146Z,99756.09
2023-02-24T07:52:14.258Z,99755.69
2023-02-24T07:54:42.023Z,99750.28
2023-02-24T07:57:13.569Z,99748.47
2023-02-24T07:59:47.044Z,99743.81
2023-02-24T08:02:15.677Z,99738.97
2023-02-24T08:04:49.773Z,99728.47
2023-02-24T08:07:24.280Z,99726.22
2023-02-24T08:10:13.936Z,99731.69
2023-02-24T08:12:47.493Z,99721.78
2023-02-24T08:15:23.536Z,99725.09
2023-02-24T08:17:53.125Z,99719.53
2023-02-24T08:20:25.861Z,99707.72
2023-02-24T08:22:55.751Z,99708.00
2023-02-24T08:25:35.178Z,99700.13
2023-02-24T08:28:09.181Z,99702.47
2023-02-24T08:30:39.949Z,99705.75
2023-02-24T08:33:09.835Z,99696.28
2023-02-24T08:35:45.124Z,99690.03
2023-02-24T08:38:16.868Z,99689.16
2023-02-24T08:40:54.812Z,99676.16
2023-02-24T08:43:33.591Z,99680.44
2023-02-24T08:46:10.273Z,99681.22
2023-02-24T08:48:42.258Z,99680.25
2023-02-24T08:51:15.052Z,99675.00
2023-02-24T08:53:46.498Z,99669.16
2023-02-24T08:56:23.975Z,99660.69
2023-02-24T08:58:56.946Z,99666.97
2023-02-24T09:01:27.399Z,99667.66
2023-02-24T09:03:57.356Z,99658.50
2023-02-24T09:06:35.782Z,99656.56
2023-02-24T09:09:22.488Z,99647.75
2023-02-24T09:11:55.972Z,99648.25
2023-02-24T09:14:28.789Z,99633.19
2023-02-24T09:17:06.175Z,99639.41
2023-02-24T09:20:01.893Z,99631.69
2023-02-24T09:22:57.091Z,99625.88
2023-02-24T09:25:40.529Z,99620.91
2023-02-24T09:28:16.971Z,99619.19
2023-02-24T09:30:53.501Z,99609.72
2023-02-24T09:33:22.992Z,99605.31
2023-02-24T09:35:53.741Z,99602.00
2023-02-24T09:38:43.106Z,99595.63
2023-02-24T09:41:31.728Z,99590.22
2023-02-24T09:44:03.874Z,99588.75
2023-02-24T09:46:42.274Z,99576.16
2023-02-24T09:49:17.720Z,99582.22
2023-02-24T09:51:46.071Z,99575.75
2023-02-24T09:54:16.672Z,99572.91
2023-02-24T09:57:00.969Z,99576.56
2023-02-24T09:59:34.772Z,99570.22
2023-02-24T10:02:17.121Z,99561.53
2023-02-24T10:04:55.489Z,99561.25
2023-02-24T10:07:38.296Z,99550.22
2023-02-24T10:10:20.359Z,99543.38
2023-02-24T10:12:53.348Z,99543.97
2023-02-24T10:15:57.037Z,99535.16
2023-02-24T10:18:30.283Z,99539.06
2023-02-24T10:21:06.444Z,99521.94
2023-02-24T10:23:45.420Z,99529.69
2023-02-24T10:26:31.610Z,99518.69
2023-02-24T10:29:09.098Z,99530.28
2023-02-24T10:31:47.964Z,99517.03
2023-02-24T10:34:26.407Z,99515.81
2023-02-24T10:36:57.451Z,99505.34
2023-02-24T10:39:26.544Z,99503.19
2023-02-24T10:41:58.134Z,99498.00
2023-02-24T10:44:35.979Z,99490.31
2023-02-24T10:47:12.316Z,99486.84
2023-02-24T10:49:56.709Z,99483.66
2023-02-24T10:52:50.851Z,99472.84
2023-02-24T10:55:50.471Z,99482.56
2023-02-24T10:58:37.525Z,99463.81
2023-02-24T11:01:13.739Z,99467.28
2023-02-24T11:04:00.970Z,99458.34
2023-02-24T11:06:50.821Z,99454.72
2023-02-24T11:09:36.392Z,99451.94
2023-02-24T11:12:33.271Z,99446.66
2023-02-24T11:15:23.447Z,99430.72
2023-02-24T11:17:58.170Z,99421.53
2023-02-24T11:20:42.547Z,99416.75
2023-02-24T11:23:18.728Z,99405.38
2023-02-24T11:25:50.168Z,99409.16
2023-02-24T11:28:30.567Z,99403.25
2023-02-24T11:31:09.976Z,99395.44
2023-02-24T11:33:45.489Z,99385.75
2023-02-24T11:36:22.663Z,99377.56
2023-02-24T11:39:17.191Z,99375.47
2023-02-24T11:41:52.974Z,99360.88
2023-02-24T11:44:28.259Z,99376.59
2023-02-24T11:47:01.619Z,99367.41
2023-02-24T11:49:38.085Z,99370.00
2023-02-24T11:52:15.073Z,99355.72
2023-02-24T11:54:49.578Z,99351.16
2023-02-24T11:57:21.103Z,99347.56
2023-02-24T11:59:53.335Z,99340.22
2023-02-24T12:02:31.327Z,99343.84
2023-02-24T12:05:06.621Z,99341.38
2023-02-24T12:07:38.879Z,99336.97
2023-02-24T12:10:17.474Z,99324.53
2023-02-24T12:12:52.501Z,99319.75
2023-02-24T12:15:25.575Z,99304.19
2023-02-24T12:18:04.260Z,99303.19
2023-02-24T12:20:40.444Z,99291.25
2023-02-24T12:23:17.939Z,99290.91
2023-02-24T12:26:08.808Z,99293.88
2023-02-24T12:28:53.844Z,99278.63
2023-02-24T12:31:33.783Z,99289.25
2023-02-24T12:34:09.623Z,99276.94
2023-02-24T12:36:51.867Z,99286.91
2023-02-24T12:39:23.198Z,99286.38
2023-02-24T12:42:00.830Z,99282.25
2023-02-24T12:44:36.725Z,99277.19
2023-02-24T12:47:10.791Z,99270.63
2023-02-24T12:49:58.495Z,99277.31
2023-02-24T12:52:34.734Z,99275.66
2023-02-24T12:55:12.358Z,99270.09
2023-02-24T12:57:49.213Z,99263.78
2023-02-24T13:00:24.753Z,99271.28
2023-02-24T13:03:02.465Z,99268.53
2023-02-24T13:05:35.550Z,99256.94
2023-02-24T13:08:23.769Z,99255.53
2023-02-24T13:11:00.244Z,99260.44
2023-02-24T13:13:35.528Z,99257.00
2023-02-24T13:16:03.342Z,99247.84
2023-02-24T13:18:33.160Z,99240.66
2023-02-24T13:21:07.110Z,99237.03
2023-02-24T13:23:38.019Z,99236.59
2023-02-24T13:26:05.913Z,99216.91
2023-02-24T13:28:36.293Z,99216.75
2023-02-24T13:31:06.928Z,99216.22
2023-02-24T13:33:36.840Z,99223.09
2023-02-24T13:36:12.599Z,99212.63
2023-02-24T13:38:43.819Z,99212.78
2023-02-24T13:41:41.711Z,99201.63
2023-02-24T13:44:28.166Z,99206.19
2023-02-24T13:47:25.330Z,99199.81
2023-02-24T13:50:04.585Z,99196.53
2023-02-24T13:52:47.872Z,99195.53
2023-02-24T13:55:29.880Z,99201.56
2023-02-24T13:58:18.729Z,99179.47
2023-02-24T14:01:02.198Z,99190.44
2023-02-24T14:03:30.580Z,99183.88
2023-02-24T14:05:59.909Z,99182.59
2023-02-24T14:08:37.673Z,99183.94
2023-02-24T14:11:11.619Z,99176.06
2023-02-24T14:13:39.911Z,99165.91
2023-02-24T14:16:12.437Z,99161.97
2023-02-24T14:18:41.502Z,99150.19
2023-02-24T14:21:21.811Z,99144.75
2023-02-24T14:23:57.052Z,99147.03
2023-02-24T14:26:27.138Z,99144.22
2023-02-24T14:28:57.938Z,99143.28
2023-02-24T14:31:26.849Z,99138.84
2023-02-24T14:33:59.544Z,99141.97
2023-02-24T14:36:31.013Z,99137.38
2023-02-24T14:39:08.324Z,99135.28
2023-02-24T14:41:37.738Z,99142.47
2023-02-24T14:44:21.010Z,99146.09
2023-02-24T14:46:50.635Z,99129.06
2023-02-24T14:49:21.642Z,99118.72
2023-02-24T14:51:52.538Z,99118.88
2023-02-24T14:54:25.871Z,99119.56
2023-02-24T14:56:55.186Z,99115.59
2023-02-24T14:59:29.920Z,99118.06
2023-02-24T15:01:58.539Z,99131.84
2023-02-24T15:04:34.321Z,99125.13
2023-02-24T15:07:03.255Z,99123.66
2023-02-24T15:09:36.316Z,99119.25
2023-02-24T15:12:13.612Z,99104.97
2023-02-24T15:14:48.194Z,99111.84
2023-02-24T15:17:19.248Z,99107.72
2023-02-24T15:19:49.105Z,99101.50
2023-02-24T15:22:23.262Z,99094.97
2023-02-24T15:24:51.957Z,99083.00
2023-02-24T15:27:30.038Z,99086.56
2023-02-24T15:30:02.800Z,99089.22
2023-02-24T15:32:32.938Z,99077.75
2023-02-24T15:35:01.274Z,99095.44
2023-02-24T15:37:34.257Z,99087.56
2023-02-24T15:40:07.678Z,99084.59
2023-02-24T15:42:37.017Z,99077.22
2023-02-24T15:45:06.925Z,99069.47
2023-02-24T15:47:43.263Z,99060.13
2023-02-24T15:50:12.505Z,99054.75
2023-02-24T15:52:41.959Z,99060.34
2023-02-24T15:55:12.814Z,99048.72
2023-02-24T15:57:41.878Z,99046.91
2023-02-24T16:00:13.428Z,99036.88
2023-02-24T16:02:42.217Z,99030.34
2023-02-24T16:05:14.388Z,99035.09
2023-02-24T16:07:45.320Z,99031.00
2023-02-24T16:10:18.962Z,99031.81
2023-02-24T16:12:51.320Z,99031.34
2023-02-24T16:15:23.328Z,99022.66
2023-02-24T16:17:52.394Z,99025.59
2023-02-24T16:20:27.321Z,99015.91
2023-02-24T16:22:59.884Z,99015.94
2023-02-24T16:25:29.741Z,99015.94
2023-02-24T16:27:58.794Z,99015.13
2023-02-24T16:30:30.278Z,99019.09
2023-02-24T16:32:59.398Z,99014.31
2023-02-24T16:35:28.157Z,99013.31
2023-02-24T16:37:56.006Z,99013.69
2023-02-24T16:40:26.247Z,99011.06
2023-02-24T16:42:54.615Z,99004.84
2023-02-24T16:45:27.814Z,99014.03
2023-02-24T16:47:57.855Z,98997.81
2023-02-24T16:50:30.074Z,98999.28
2023-02-24T16:52:57.889Z,98998.00
2023-02-24T16:55:25.821Z,98996.19
2023-02-24T16:57:53.496Z,98991.44
2023-02-24T17:00:24.304Z,98997.31
2023-02-24T17:02:53.865Z,98995.00
2023-02-24T17:05:23.561Z,98998.44
2023-02-24T17:07:53.896Z,98993.03
2023-02-24T17:10:23.208Z,99005.00
2023-02-24T17:12:51.404Z,99006.28
2023-02-24T17:15:21.769Z,99007.13
2023-02-24T17:17:51.361Z,99005.81
2023-02-24T17:20:21.317Z,99010.06
2023-02-24T17:22:49.133Z,99013.97
2023-02-24T17:25:19.001Z,99018.72
2023-02-24T17:27:46.956Z,99021.34
2023-02-24T17:30:16.956Z,99020.34
2023-02-24T17:32:44.839Z,99023.63
2023-02-24T17:35:14.014Z,99026.91
2023-02-24T17:37:42.051Z,99036.09
2023-02-24T17:40:11.705Z,99039.03
2023-02-24T17:42:40.102Z,99051.00
2023-02-24T17:45:09.458Z,99038.88
2023-02-24T17:47:37.498Z,99034.13
2023-02-24T17:50:06.402Z,99041.81
2023-02-24T17:52:37.031Z,99039.38
2023-02-24T17:55:05.806Z,99042.31
2023-02-24T17:57:34.689Z,99046.25
2023-02-24T18:00:02.580Z,99045.44
2023-02-24T18:02:40.415Z,99052.47
2023-02-24T18:05:08.860Z,99042.81
2023-02-24T18:07:38.058Z,99048.38
2023-02-24T18:10:07.196Z,99042.31
2023-02-24T18:12:34.911Z,99050.19
2023-02-24T18:15:08.739Z,99054.94
2023-02-24T18:17:38.034Z,99055.09
2023-02-24T18:20:06.775Z,99057.88
2023-02-24T18:22:34.595Z,99060.19
2023-02-24T18:25:03.646Z,99057.41
2023-02-24T18:27:31.393Z,99060.38
2023-02-24T18:29:59.107Z,99057.28
2023-02-24T18:32:27.042Z,99057.44
2023-02-24T18:34:54.865Z,99063.16
2023-02-24T18:37:23.197Z,99063.50
2023-02-24T18:39:53.194Z,99063.00
2023-02-24T18:42:22.275Z,99069.72
2023-02-24T18:44:50.035Z,99067.72
2023-02-24T18:47:17.766Z,99070.03
2023-02-24T18:49:45.484Z,99071.69
2023-02-24T18:52:13.163Z,99070.72
2023-02-24T18:54:40.884Z,99069.06
2023-02-24T18:57:08.587Z,99071.72
2023-02-24T18:59:37.666Z,99073.03
2023-02-24T19:02:05.435Z,99073.84
2023-02-24T19:04:33.514Z,99071.41
2023-02-24T19:07:01.239Z,99071.25
2023-02-24T19:09:29.026Z,99073.84
2023-02-24T19:11:56.720Z,99073.50
2023-02-24T19:14:24.437Z,99070.88
2023-02-24T19:16:53.903Z,99078.94
2023-02-24T19:19:22.694Z,99085.16
2023-02-24T19:21:50.825Z,99082.19
2023-02-24T19:24:18.992Z,99086.47
2023-02-24T19:26:47.532Z,99088.25
2023-02-24T19:29:16.253Z,99101.53
2023-02-24T19:31:45.475Z,99087.94
2023-02-24T19:34:15.665Z,99094.00
2023-02-24T19:36:43.457Z,99098.75
2023-02-24T19:39:13.918Z,99095.16
2023-02-24T19:41:42.123Z,99101.38
2023-02-24T19:44:10.233Z,99102.66
2023-02-24T19:46:38.927Z,99101.84
2023-02-24T19:49:06.930Z,99095.78
2023-02-24T19:51:36.259Z,99098.41
2023-02-24T19:54:05.835Z,99097.91
2023-02-24T19:56:35.608Z,99099.38
2023-02-24T19:59:06.036Z,99093.31
2023-02-24T20:01:33.915Z,99103.31
2023-02-24T20:04:03.579Z,99103.97
2023-02-24T20:06:33.602Z,99104.63
2023-02-24T20:09:03.475Z,99108.88
2023-02-24T20:11:32.871Z,99114.09
2023-02-24T20:14:00.652Z,99113.81
2023-02-24T20:16:32.416Z,99114.63
2023-02-24T20:19:00.337Z,99125.41
2023-02-24T20:21:28.171Z,99115.13
2023-02-24T20:23:55.908Z,99114.13
2023-02-24T20:26:25.103Z,99110.38
2023-02-24T20:28:52.939Z,99105.78
2023-02-24T20:31:21.055Z,99111.88
2023-02-24T20:33:50.437Z,99114.13
2023-02-24T20:36:21.280Z,99120.19
2023-02-24T20:38:49.411Z,99121.84
2023-02-24T20:41:17.616Z,99125.13
2023-02-24T20:43:46.807Z,99113.66
2023-02-24T20:46:16.515Z,99116.28
2023-02-24T20:48:44.612Z,99117.94
2023-02-24T20:51:13.539Z,99125.28
2023-02-24T20:53:56.064Z,99123.63
2023-02-24T20:56:25.820Z,99124.47
2023-02-24T20:59:00.880Z,99120.88
2023-02-24T21:01:29.748Z,99133.00
2023-02-24T21:03:57.729Z,99132.16
2023-02-24T21:06:26.125Z,99130.38
2023-02-24T21:08:54.288Z,99130.38
2023-02-24T21:11:22.431Z,99134.44
2023-02-24T21:13:52.038Z,99133.66
2023-02-24T21:16:22.970Z,99126.25
2023-02-24T21:18:53.204Z,99131.66
2023-02-24T21:21:21.675Z,99124.81
2023-02-24T21:23:50.460Z,99129.38
2023-02-24T21:26:18.764Z,99132.00
2023-02-24T21:28:47.393Z,99129.53
2023-02-24T21:31:17.934Z,99128.22
2023-02-24T21:33:51.501Z,99128.22
2023-02-24T21:36:20.879Z,99121.34
2023-02-24T21:38:49.205Z,99122.31
2023-02-24T21:41:19.215Z,99124.13
2023-02-24T21:43:47.683Z,99128.38
2023-02-24T21:46:16.431Z,99127.88
2023-02-24T21:48:44.426Z,99124.13
2023-02-24T21:51:14.963Z,99126.75
2023-02-24T21:53:44.414Z,99131.81
2023-02-24T21:56:16.758Z,99134.44
2023-02-24T21:58:45.919Z,99139.03
2023-02-24T22:01:15.160Z,99132.28
2023-02-24T22:03:43.047Z,99137.53
2023-02-24T22:06:12.187Z,99139.03
2023-02-24T22:08:45.244Z,99132.97
2023-02-24T22:11:14.383Z,99143.13
2023-02-24T22:13:43.067Z,99142.31
2023-02-24T22:16:13.323Z,99142.94
2023-02-24T22:18:41.588Z,99142.13
2023-02-24T22:21:10.367Z,99150.78
2023-02-24T22:23:38.268Z,99155.22
2023-02-24T22:26:08.889Z,99151.97
2023-02-24T22:28:38.790Z,99154.56
2023-02-24T22:31:07.783Z,99153.59
2023-02-24T22:33:37.908Z,99155.88
2023-02-24T22:36:08.269Z,99149.97
2023-02-24T22:38:37.978Z,99157.34
2023-02-24T22:41:09.549Z,99153.09
2023-02-24T22:43:37.557Z,99146.72
2023-02-24T22:46:07.754Z,99143.13
2023-02-24T22:48:37.563Z,99147.84
2023-02-24T22:51:08.383Z,99154.88
2023-02-24T22:53:39.611Z,99156.53
2023-02-24T22:56:11.602Z,99149.50
2023-02-24T22:58:39.710Z,99151.97
2023-02-24T23:01:10.566Z,99159.16
2023-02-24T23:03:40.052Z,99165.53
2023-02-24T23:06:10.337Z,99167.31
2023-02-24T23:08:39.719Z,99162.75
2023-02-24T23:11:13.025Z,99166.50
2023-02-24T23:13:42.303Z,99168.47
2023-02-24T23:16:13.848Z,99164.88
2023-02-24T23:18:48.075Z,99176.19
2023-02-24T23:21:16.783Z,99178.63
2023-02-24T23:23:44.799Z,99169.31
2023-02-24T23:26:14.128Z,99172.75
2023-02-24T23:28:41.866Z,99171.72
2023-02-24T23:31:09.628Z,99174.53
2023-02-24T23:33:37.383Z,99188.91
2023-02-24T23:36:07.385Z,99192.06
2023-02-24T23:38:35.538Z,99196.47
2023-02-24T23:41:08.866Z,99201.84
2023-02-24T23:43:38.068Z,99197.44
2023-02-24T23:46:07.105Z,99202.69
2023-02-24T23:48:35.197Z,99213.81
2023-02-24T23:51:04.133Z,99208.75
2023-02-24T23:53:31.904Z,99218.38
2023-02-24T23:55:59.651Z,99209.88
2023-02-24T23:58:27.336Z,99214.81
